sensor_id;sensor_type;location;lat;lon;timestamp;P1;durP1;ratioP1;P2;durP2;ratioP2
1567;SDS011;777;47.156;8.326;2022-11-20T00:00:15;5.93;;;4.47;;
1567;SDS011;777;47.156;8.326;2022-11-20T00:02:43;4.72;;;4.20;;
1567;SDS011;777;47.156;8.326;2022-11-20T00:05:10;5.07;;;4.30;;
1567;SDS011;777;47.156;8.326;2022-11-20T00:07:37;5.32;;;4.50;;
1567;SDS011;777;47.156;8.326;2022-11-20T00:10:04;5.25;;;4.25;;
1567;SDS011;777;47.156;8.326;2022-11-20T00:12:50;5.70;;;4.55;;
1567;SDS011;777;47.156;8.326;2022-11-20T00:15:17;5.15;;;4.20;;
1567;SDS011;777;47.156;8.326;2022-11-20T00:17:45;5.60;;;4.50;;
1567;SDS011;777;47.156;8.326;2022-11-20T00:20:12;5.82;;;4.70;;
1567;SDS011;777;47.156;8.326;2022-11-20T00:22:40;5.47;;;4.43;;
1567;SDS011;777;47.156;8.326;2022-11-20T00:25:07;6.70;;;4.75;;
1567;SDS011;777;47.156;8.326;2022-11-20T00:27:34;7.53;;;4.47;;
1567;SDS011;777;47.156;8.326;2022-11-20T00:30:01;8.18;;;4.82;;
1567;SDS011;777;47.156;8.326;2022-11-20T00:32:29;6.40;;;4.75;;
1567;SDS011;777;47.156;8.326;2022-11-20T00:34:57;7.95;;;5.13;;
1567;SDS011;777;47.156;8.326;2022-11-20T00:37:24;6.85;;;4.28;;
1567;SDS011;777;47.156;8.326;2022-11-20T00:39:51;7.28;;;4.30;;
1567;SDS011;777;47.156;8.326;2022-11-20T00:42:18;6.30;;;4.13;;
1567;SDS011;777;47.156;8.326;2022-11-20T00:44:45;5.13;;;4.07;;
1567;SDS011;777;47.156;8.326;2022-11-20T00:47:12;5.80;;;4.15;;
1567;SDS011;777;47.156;8.326;2022-11-20T00:49:39;6.38;;;4.45;;
1567;SDS011;777;47.156;8.326;2022-11-20T00:52:07;5.60;;;3.75;;
1567;SDS011;777;47.156;8.326;2022-11-20T00:54:35;6.35;;;4.35;;
1567;SDS011;777;47.156;8.326;2022-11-20T00:57:01;5.63;;;4.60;;
1567;SDS011;777;47.156;8.326;2022-11-20T00:59:29;5.78;;;3.78;;
1567;SDS011;777;47.156;8.326;2022-11-20T01:01:55;7.20;;;4.40;;
1567;SDS011;777;47.156;8.326;2022-11-20T01:08:11;7.75;;;4.07;;
1567;SDS011;777;47.156;8.326;2022-11-20T01:10:38;5.93;;;4.03;;
1567;SDS011;777;47.156;8.326;2022-11-20T01:13:05;6.50;;;4.20;;
1567;SDS011;777;47.156;8.326;2022-11-20T01:15:50;6.30;;;3.78;;
1567;SDS011;777;47.156;8.326;2022-11-20T01:18:17;6.03;;;3.45;;
1567;SDS011;777;47.156;8.326;2022-11-20T01:20:44;7.95;;;3.63;;
1567;SDS011;777;47.156;8.326;2022-11-20T01:23:12;5.05;;;3.67;;
1567;SDS011;777;47.156;8.326;2022-11-20T01:25:39;9.30;;;3.58;;
1567;SDS011;777;47.156;8.326;2022-11-20T01:28:06;7.05;;;4.03;;
1567;SDS011;777;47.156;8.326;2022-11-20T01:30:33;5.82;;;4.10;;
1567;SDS011;777;47.156;8.326;2022-11-20T01:33:00;6.53;;;3.70;;
1567;SDS011;777;47.156;8.326;2022-11-20T01:35:46;6.43;;;3.88;;
1567;SDS011;777;47.156;8.326;2022-11-20T01:38:14;6.68;;;4.15;;
1567;SDS011;777;47.156;8.326;2022-11-20T01:40:41;7.05;;;4.70;;
1567;SDS011;777;47.156;8.326;2022-11-20T01:43:10;6.28;;;4.75;;
1567;SDS011;777;47.156;8.326;2022-11-20T01:45:58;7.13;;;4.65;;
1567;SDS011;777;47.156;8.326;2022-11-20T01:48:49;6.05;;;5.45;;
1567;SDS011;777;47.156;8.326;2022-11-20T01:51:21;7.18;;;5.65;;
1567;SDS011;777;47.156;8.326;2022-11-20T01:53:53;7.70;;;5.43;;
1567;SDS011;777;47.156;8.326;2022-11-20T01:56:24;6.63;;;5.90;;
1567;SDS011;777;47.156;8.326;2022-11-20T01:58:53;7.32;;;5.70;;
1567;SDS011;777;47.156;8.326;2022-11-20T02:01:23;6.50;;;5.70;;
1567;SDS011;777;47.156;8.326;2022-11-20T02:03:50;7.00;;;5.70;;
1567;SDS011;777;47.156;8.326;2022-11-20T02:06:19;9.00;;;5.95;;
1567;SDS011;777;47.156;8.326;2022-11-20T02:08:50;7.00;;;6.03;;
1567;SDS011;777;47.156;8.326;2022-11-20T02:11:19;7.00;;;5.90;;
1567;SDS011;777;47.156;8.326;2022-11-20T02:13:46;7.72;;;5.63;;
1567;SDS011;777;47.156;8.326;2022-11-20T02:16:18;7.28;;;5.47;;
1567;SDS011;777;47.156;8.326;2022-11-20T02:18:48;7.30;;;6.03;;
1567;SDS011;777;47.156;8.326;2022-11-20T02:21:19;7.93;;;6.00;;
1567;SDS011;777;47.156;8.326;2022-11-20T02:23:59;6.40;;;5.80;;
1567;SDS011;777;47.156;8.326;2022-11-20T02:26:28;6.57;;;5.38;;
1567;SDS011;777;47.156;8.326;2022-11-20T02:28:57;8.18;;;6.03;;
1567;SDS011;777;47.156;8.326;2022-11-20T02:31:26;7.72;;;6.20;;
1567;SDS011;777;47.156;8.326;2022-11-20T02:33:55;8.00;;;5.55;;
1567;SDS011;777;47.156;8.326;2022-11-20T02:36:23;9.48;;;6.10;;
1567;SDS011;777;47.156;8.326;2022-11-20T02:38:52;8.95;;;5.85;;
1567;SDS011;777;47.156;8.326;2022-11-20T02:41:20;6.38;;;5.35;;
1567;SDS011;777;47.156;8.326;2022-11-20T02:44:06;6.25;;;5.65;;
1567;SDS011;777;47.156;8.326;2022-11-20T02:46:33;8.38;;;5.50;;
1567;SDS011;777;47.156;8.326;2022-11-20T02:49:01;6.47;;;5.65;;
1567;SDS011;777;47.156;8.326;2022-11-20T02:51:28;9.93;;;5.57;;
1567;SDS011;777;47.156;8.326;2022-11-20T02:53:55;7.95;;;5.80;;
1567;SDS011;777;47.156;8.326;2022-11-20T02:56:24;7.55;;;5.25;;
1567;SDS011;777;47.156;8.326;2022-11-20T02:58:51;7.45;;;5.85;;
1567;SDS011;777;47.156;8.326;2022-11-20T03:01:19;6.57;;;5.18;;
1567;SDS011;777;47.156;8.326;2022-11-20T03:03:45;8.80;;;5.50;;
1567;SDS011;777;47.156;8.326;2022-11-20T03:06:13;8.50;;;4.88;;
1567;SDS011;777;47.156;8.326;2022-11-20T03:08:41;8.30;;;5.63;;
1567;SDS011;777;47.156;8.326;2022-11-20T03:11:08;9.40;;;5.40;;
1567;SDS011;777;47.156;8.326;2022-11-20T03:13:37;5.53;;;4.72;;
1567;SDS011;777;47.156;8.326;2022-11-20T03:16:07;7.13;;;5.47;;
1567;SDS011;777;47.156;8.326;2022-11-20T03:18:36;6.15;;;4.88;;
1567;SDS011;777;47.156;8.326;2022-11-20T03:21:04;6.35;;;4.63;;
1567;SDS011;777;47.156;8.326;2022-11-20T03:23:31;10.30;;;4.85;;
1567;SDS011;777;47.156;8.326;2022-11-20T03:26:09;5.95;;;4.28;;
1567;SDS011;777;47.156;8.326;2022-11-20T03:28:39;8.10;;;4.80;;
1567;SDS011;777;47.156;8.326;2022-11-20T03:31:07;8.05;;;5.03;;
1567;SDS011;777;47.156;8.326;2022-11-20T03:33:35;8.57;;;5.30;;
1567;SDS011;777;47.156;8.326;2022-11-20T03:36:02;6.75;;;4.80;;
1567;SDS011;777;47.156;8.326;2022-11-20T03:38:30;6.45;;;5.07;;
1567;SDS011;777;47.156;8.326;2022-11-20T03:40:58;5.88;;;4.82;;
1567;SDS011;777;47.156;8.326;2022-11-20T03:43:27;5.57;;;4.93;;
1567;SDS011;777;47.156;8.326;2022-11-20T03:45:55;6.80;;;5.15;;
1567;SDS011;777;47.156;8.326;2022-11-20T03:48:22;8.05;;;5.75;;
1567;SDS011;777;47.156;8.326;2022-11-20T03:50:50;7.53;;;5.50;;
1567;SDS011;777;47.156;8.326;2022-11-20T03:53:17;6.10;;;5.43;;
1567;SDS011;777;47.156;8.326;2022-11-20T03:55:45;9.07;;;5.93;;
1567;SDS011;777;47.156;8.326;2022-11-20T03:58:16;6.45;;;5.78;;
1567;SDS011;777;47.156;8.326;2022-11-20T04:00:43;6.40;;;5.68;;
1567;SDS011;777;47.156;8.326;2022-11-20T04:03:11;6.85;;;5.70;;
1567;SDS011;777;47.156;8.326;2022-11-20T04:05:38;7.32;;;6.13;;
1567;SDS011;777;47.156;8.326;2022-11-20T04:08:05;6.80;;;5.72;;
1567;SDS011;777;47.156;8.326;2022-11-20T04:10:32;8.00;;;6.13;;
1567;SDS011;777;47.156;8.326;2022-11-20T04:13:00;7.20;;;6.05;;
1567;SDS011;777;47.156;8.326;2022-11-20T04:15:27;8.80;;;6.25;;
1567;SDS011;777;47.156;8.326;2022-11-20T04:17:54;8.70;;;6.10;;
1567;SDS011;777;47.156;8.326;2022-11-20T04:20:22;8.05;;;6.03;;
1567;SDS011;777;47.156;8.326;2022-11-20T04:22:52;7.82;;;5.93;;
1567;SDS011;777;47.156;8.326;2022-11-20T04:25:20;6.65;;;5.70;;
1567;SDS011;777;47.156;8.326;2022-11-20T04:27:47;9.95;;;6.30;;
1567;SDS011;777;47.156;8.326;2022-11-20T04:30:14;9.57;;;7.07;;
1567;SDS011;777;47.156;8.326;2022-11-20T04:32:41;9.45;;;7.45;;
1567;SDS011;777;47.156;8.326;2022-11-20T04:35:28;9.30;;;6.90;;
1567;SDS011;777;47.156;8.326;2022-11-20T04:37:55;9.20;;;7.30;;
1567;SDS011;777;47.156;8.326;2022-11-20T04:40:22;8.98;;;6.43;;
1567;SDS011;777;47.156;8.326;2022-11-20T04:42:49;8.13;;;6.60;;
1567;SDS011;777;47.156;8.326;2022-11-20T04:45:16;7.95;;;6.40;;
1567;SDS011;777;47.156;8.326;2022-11-20T04:47:43;9.00;;;7.03;;
1567;SDS011;777;47.156;8.326;2022-11-20T04:50:10;8.70;;;6.85;;
1567;SDS011;777;47.156;8.326;2022-11-20T04:52:39;7.07;;;6.38;;
1567;SDS011;777;47.156;8.326;2022-11-20T04:55:06;7.78;;;6.13;;
1567;SDS011;777;47.156;8.326;2022-11-20T04:57:33;6.93;;;5.80;;
1567;SDS011;777;47.156;8.326;2022-11-20T05:00:00;6.93;;;5.78;;
1567;SDS011;777;47.156;8.326;2022-11-20T05:02:27;9.07;;;5.40;;
1567;SDS011;777;47.156;8.326;2022-11-20T05:04:56;6.63;;;5.28;;
1567;SDS011;777;47.156;8.326;2022-11-20T05:07:23;6.90;;;5.68;;
1567;SDS011;777;47.156;8.326;2022-11-20T05:09:52;6.53;;;5.70;;
1567;SDS011;777;47.156;8.326;2022-11-20T05:12:19;7.53;;;5.90;;
1567;SDS011;777;47.156;8.326;2022-11-20T05:14:46;7.80;;;5.70;;
1567;SDS011;777;47.156;8.326;2022-11-20T05:17:13;6.20;;;5.60;;
1567;SDS011;777;47.156;8.326;2022-11-20T05:19:40;6.45;;;4.90;;
1567;SDS011;777;47.156;8.326;2022-11-20T05:22:07;6.95;;;4.88;;
1567;SDS011;777;47.156;8.326;2022-11-20T05:24:33;6.13;;;4.97;;
1567;SDS011;777;47.156;8.326;2022-11-20T05:27:02;7.32;;;5.00;;
1567;SDS011;777;47.156;8.326;2022-11-20T05:29:29;5.95;;;4.75;;
1567;SDS011;777;47.156;8.326;2022-11-20T05:31:56;6.38;;;4.60;;
1567;SDS011;777;47.156;8.326;2022-11-20T05:34:23;7.93;;;4.47;;
1567;SDS011;777;47.156;8.326;2022-11-20T05:36:50;10.18;;;6.65;;
1567;SDS011;777;47.156;8.326;2022-11-20T05:39:17;16.38;;;9.25;;
1567;SDS011;777;47.156;8.326;2022-11-20T05:41:44;10.43;;;7.70;;
1567;SDS011;777;47.156;8.326;2022-11-20T05:44:12;6.28;;;4.75;;
1567;SDS011;777;47.156;8.326;2022-11-20T05:46:39;6.90;;;4.47;;
1567;SDS011;777;47.156;8.326;2022-11-20T05:49:06;4.88;;;3.50;;
1567;SDS011;777;47.156;8.326;2022-11-20T05:51:52;5.43;;;3.63;;
1567;SDS011;777;47.156;8.326;2022-11-20T05:54:19;4.95;;;2.85;;
1567;SDS011;777;47.156;8.326;2022-11-20T05:56:46;4.30;;;2.80;;
1567;SDS011;777;47.156;8.326;2022-11-20T05:59:33;4.90;;;2.80;;
1567;SDS011;777;47.156;8.326;2022-11-20T06:02:01;4.03;;;2.50;;
1567;SDS011;777;47.156;8.326;2022-11-20T06:04:27;5.70;;;2.95;;
1567;SDS011;777;47.156;8.326;2022-11-20T06:06:55;3.33;;;2.60;;
1567;SDS011;777;47.156;8.326;2022-11-20T06:09:21;3.08;;;2.58;;
1567;SDS011;777;47.156;8.326;2022-11-20T06:11:48;3.60;;;2.50;;
1567;SDS011;777;47.156;8.326;2022-11-20T06:14:15;6.13;;;2.88;;
1567;SDS011;777;47.156;8.326;2022-11-20T06:16:44;3.15;;;2.60;;
1567;SDS011;777;47.156;8.326;2022-11-20T06:19:11;5.90;;;3.08;;
1567;SDS011;777;47.156;8.326;2022-11-20T06:21:38;5.13;;;3.17;;
1567;SDS011;777;47.156;8.326;2022-11-20T06:24:05;3.58;;;3.00;;
1567;SDS011;777;47.156;8.326;2022-11-20T06:26:32;5.20;;;3.08;;
1567;SDS011;777;47.156;8.326;2022-11-20T06:28:59;4.03;;;3.00;;
1567;SDS011;777;47.156;8.326;2022-11-20T06:31:26;4.40;;;2.83;;
1567;SDS011;777;47.156;8.326;2022-11-20T06:33:55;5.72;;;3.05;;
1567;SDS011;777;47.156;8.326;2022-11-20T06:36:22;3.65;;;2.70;;
1567;SDS011;777;47.156;8.326;2022-11-20T06:38:49;3.20;;;2.65;;
1567;SDS011;777;47.156;8.326;2022-11-20T06:41:17;3.70;;;2.70;;
1567;SDS011;777;47.156;8.326;2022-11-20T06:43:45;3.75;;;2.63;;
1567;SDS011;777;47.156;8.326;2022-11-20T06:46:13;4.65;;;2.53;;
1567;SDS011;777;47.156;8.326;2022-11-20T06:48:42;3.25;;;2.63;;
1567;SDS011;777;47.156;8.326;2022-11-20T06:51:11;4.85;;;3.00;;
1567;SDS011;777;47.156;8.326;2022-11-20T06:53:38;3.58;;;2.50;;
1567;SDS011;777;47.156;8.326;2022-11-20T06:56:05;3.88;;;3.05;;
1567;SDS011;777;47.156;8.326;2022-11-20T06:58:33;3.88;;;2.90;;
1567;SDS011;777;47.156;8.326;2022-11-20T07:01:02;3.25;;;2.80;;
1567;SDS011;777;47.156;8.326;2022-11-20T07:03:49;4.72;;;2.90;;
1567;SDS011;777;47.156;8.326;2022-11-20T07:06:18;4.85;;;3.10;;
1567;SDS011;777;47.156;8.326;2022-11-20T07:08:45;4.20;;;2.60;;
1567;SDS011;777;47.156;8.326;2022-11-20T07:11:12;3.78;;;2.58;;
1567;SDS011;777;47.156;8.326;2022-11-20T07:13:39;3.30;;;2.40;;
1567;SDS011;777;47.156;8.326;2022-11-20T07:16:07;3.92;;;2.40;;
1567;SDS011;777;47.156;8.326;2022-11-20T07:18:35;5.25;;;2.78;;
1567;SDS011;777;47.156;8.326;2022-11-20T07:21:02;4.43;;;2.45;;
1567;SDS011;777;47.156;8.326;2022-11-20T07:23:31;4.43;;;2.55;;
1567;SDS011;777;47.156;8.326;2022-11-20T07:26:02;4.05;;;2.05;;
1567;SDS011;777;47.156;8.326;2022-11-20T07:28:29;2.88;;;1.77;;
1567;SDS011;777;47.156;8.326;2022-11-20T07:30:56;2.70;;;1.70;;
1567;SDS011;777;47.156;8.326;2022-11-20T07:33:23;4.25;;;2.05;;
1567;SDS011;777;47.156;8.326;2022-11-20T07:35:50;3.88;;;1.77;;
1567;SDS011;777;47.156;8.326;2022-11-20T07:38:17;4.55;;;1.90;;
1567;SDS011;777;47.156;8.326;2022-11-20T07:40:46;3.30;;;1.98;;
1567;SDS011;777;47.156;8.326;2022-11-20T07:43:14;3.45;;;1.98;;
1567;SDS011;777;47.156;8.326;2022-11-20T07:45:41;2.72;;;2.20;;
1567;SDS011;777;47.156;8.326;2022-11-20T07:48:08;2.72;;;1.90;;
1567;SDS011;777;47.156;8.326;2022-11-20T07:50:35;4.93;;;1.90;;
1567;SDS011;777;47.156;8.326;2022-11-20T07:53:20;4.40;;;1.75;;
1567;SDS011;777;47.156;8.326;2022-11-20T07:55:49;2.45;;;1.35;;
1567;SDS011;777;47.156;8.326;2022-11-20T07:58:17;2.58;;;1.75;;
1567;SDS011;777;47.156;8.326;2022-11-20T08:00:44;1.73;;;1.52;;
1567;SDS011;777;47.156;8.326;2022-11-20T08:03:12;2.72;;;1.70;;
1567;SDS011;777;47.156;8.326;2022-11-20T08:05:39;3.42;;;1.63;;
1567;SDS011;777;47.156;8.326;2022-11-20T08:08:06;3.20;;;1.50;;
1567;SDS011;777;47.156;8.326;2022-11-20T08:10:33;3.45;;;1.90;;
1567;SDS011;777;47.156;8.326;2022-11-20T08:13:01;3.33;;;1.48;;
1567;SDS011;777;47.156;8.326;2022-11-20T08:16:05;3.90;;;1.85;;
1567;SDS011;777;47.156;8.326;2022-11-20T08:18:32;2.35;;;1.52;;
1567;SDS011;777;47.156;8.326;2022-11-20T08:21:01;3.10;;;1.77;;
1567;SDS011;777;47.156;8.326;2022-11-20T08:23:48;3.53;;;2.20;;
1567;SDS011;777;47.156;8.326;2022-11-20T08:26:15;3.63;;;1.95;;
1567;SDS011;777;47.156;8.326;2022-11-20T08:28:43;2.13;;;1.70;;
1567;SDS011;777;47.156;8.326;2022-11-20T08:31:10;4.18;;;1.60;;
1567;SDS011;777;47.156;8.326;2022-11-20T08:33:37;2.53;;;1.63;;
1567;SDS011;777;47.156;8.326;2022-11-20T08:36:05;2.67;;;1.70;;
1567;SDS011;777;47.156;8.326;2022-11-20T08:38:32;2.63;;;1.95;;
1567;SDS011;777;47.156;8.326;2022-11-20T08:40:59;4.57;;;2.08;;
1567;SDS011;777;47.156;8.326;2022-11-20T08:43:46;2.45;;;1.40;;
1567;SDS011;777;47.156;8.326;2022-11-20T08:46:14;2.60;;;1.52;;
1567;SDS011;777;47.156;8.326;2022-11-20T08:48:41;2.70;;;1.40;;
1567;SDS011;777;47.156;8.326;2022-11-20T08:51:08;5.00;;;1.50;;
1567;SDS011;777;47.156;8.326;2022-11-20T08:53:36;2.42;;;1.40;;
1567;SDS011;777;47.156;8.326;2022-11-20T08:56:03;2.00;;;1.80;;
1567;SDS011;777;47.156;8.326;2022-11-20T08:58:30;3.15;;;1.42;;
1567;SDS011;777;47.156;8.326;2022-11-20T09:00:59;2.28;;;1.40;;
1567;SDS011;777;47.156;8.326;2022-11-20T09:03:26;4.18;;;1.65;;
1567;SDS011;777;47.156;8.326;2022-11-20T09:05:56;2.67;;;1.40;;
1567;SDS011;777;47.156;8.326;2022-11-20T09:08:24;1.52;;;1.00;;
1567;SDS011;777;47.156;8.326;2022-11-20T09:10:51;4.57;;;1.38;;
1567;SDS011;777;47.156;8.326;2022-11-20T09:13:19;1.92;;;1.20;;
1567;SDS011;777;47.156;8.326;2022-11-20T09:15:46;2.30;;;1.40;;
1567;SDS011;777;47.156;8.326;2022-11-20T09:18:14;2.45;;;1.10;;
1567;SDS011;777;47.156;8.326;2022-11-20T09:20:42;2.58;;;1.13;;
1567;SDS011;777;47.156;8.326;2022-11-20T09:23:09;1.60;;;1.20;;
1567;SDS011;777;47.156;8.326;2022-11-20T09:25:36;2.55;;;1.10;;
1567;SDS011;777;47.156;8.326;2022-11-20T09:28:03;1.77;;;1.02;;
1567;SDS011;777;47.156;8.326;2022-11-20T09:30:30;2.88;;;1.13;;
1567;SDS011;777;47.156;8.326;2022-11-20T09:32:57;1.70;;;1.30;;
1567;SDS011;777;47.156;8.326;2022-11-20T09:35:25;4.20;;;1.60;;
1567;SDS011;777;47.156;8.326;2022-11-20T09:37:52;2.72;;;1.38;;
1567;SDS011;777;47.156;8.326;2022-11-20T09:40:20;2.08;;;1.38;;
1567;SDS011;777;47.156;8.326;2022-11-20T09:42:50;3.75;;;1.50;;
1567;SDS011;777;47.156;8.326;2022-11-20T09:45:24;2.22;;;1.40;;
1567;SDS011;777;47.156;8.326;2022-11-20T09:48:24;2.38;;;1.25;;
1567;SDS011;777;47.156;8.326;2022-11-20T09:51:03;2.70;;;1.52;;
1567;SDS011;777;47.156;8.326;2022-11-20T09:53:40;3.13;;;1.42;;
1567;SDS011;777;47.156;8.326;2022-11-20T09:56:18;2.47;;;1.30;;
1567;SDS011;777;47.156;8.326;2022-11-20T09:58:47;3.30;;;1.00;;
1567;SDS011;777;47.156;8.326;2022-11-20T10:01:17;2.58;;;1.20;;
1567;SDS011;777;47.156;8.326;2022-11-20T10:03:49;2.35;;;1.00;;
1567;SDS011;777;47.156;8.326;2022-11-20T10:08:51;2.58;;;1.35;;
1567;SDS011;777;47.156;8.326;2022-11-20T10:11:31;2.65;;;1.27;;
1567;SDS011;777;47.156;8.326;2022-11-20T10:14:11;1.88;;;0.95;;
1567;SDS011;777;47.156;8.326;2022-11-20T10:16:53;1.58;;;1.10;;
1567;SDS011;777;47.156;8.326;2022-11-20T10:19:32;4.70;;;1.20;;
1567;SDS011;777;47.156;8.326;2022-11-20T10:22:11;2.20;;;1.20;;
1567;SDS011;777;47.156;8.326;2022-11-20T10:24:50;2.17;;;1.30;;
1567;SDS011;777;47.156;8.326;2022-11-20T10:30:00;1.52;;;1.05;;
1567;SDS011;777;47.156;8.326;2022-11-20T10:32:31;3.13;;;1.23;;
1567;SDS011;777;47.156;8.326;2022-11-20T10:35:05;3.67;;;1.40;;
1567;SDS011;777;47.156;8.326;2022-11-20T10:37:44;3.05;;;1.23;;
1567;SDS011;777;47.156;8.326;2022-11-20T10:40:19;1.73;;;0.90;;
1567;SDS011;777;47.156;8.326;2022-11-20T10:42:52;2.25;;;1.08;;
1567;SDS011;777;47.156;8.326;2022-11-20T10:45:28;2.85;;;1.30;;
1567;SDS011;777;47.156;8.326;2022-11-20T10:48:07;1.90;;;1.40;;
1567;SDS011;777;47.156;8.326;2022-11-20T10:50:46;2.85;;;1.30;;
1567;SDS011;777;47.156;8.326;2022-11-20T10:53:42;3.72;;;1.17;;
1567;SDS011;777;47.156;8.326;2022-11-20T10:56:19;1.88;;;1.23;;
1567;SDS011;777;47.156;8.326;2022-11-20T10:58:54;1.92;;;1.17;;
1567;SDS011;777;47.156;8.326;2022-11-20T11:01:30;1.50;;;1.10;;
1567;SDS011;777;47.156;8.326;2022-11-20T11:04:07;3.25;;;1.30;;
1567;SDS011;777;47.156;8.326;2022-11-20T11:06:47;2.50;;;1.20;;
1567;SDS011;777;47.156;8.326;2022-11-20T11:09:17;2.65;;;1.20;;
1567;SDS011;777;47.156;8.326;2022-11-20T11:11:51;2.20;;;1.20;;
1567;SDS011;777;47.156;8.326;2022-11-20T11:14:18;1.98;;;1.10;;
1567;SDS011;777;47.156;8.326;2022-11-20T11:16:49;2.95;;;1.35;;
1567;SDS011;777;47.156;8.326;2022-11-20T11:19:17;1.80;;;0.82;;
1567;SDS011;777;47.156;8.326;2022-11-20T11:21:45;1.65;;;0.85;;
1567;SDS011;777;47.156;8.326;2022-11-20T11:24:20;1.83;;;1.00;;
1567;SDS011;777;47.156;8.326;2022-11-20T11:26:52;1.95;;;1.10;;
1567;SDS011;777;47.156;8.326;2022-11-20T11:29:23;2.08;;;1.10;;
1567;SDS011;777;47.156;8.326;2022-11-20T11:32:02;2.38;;;1.20;;
1567;SDS011;777;47.156;8.326;2022-11-20T11:34:31;2.88;;;1.20;;
1567;SDS011;777;47.156;8.326;2022-11-20T11:36:58;1.05;;;0.70;;
1567;SDS011;777;47.156;8.326;2022-11-20T11:39:28;1.30;;;0.80;;
1567;SDS011;777;47.156;8.326;2022-11-20T11:42:18;1.30;;;0.90;;
1567;SDS011;777;47.156;8.326;2022-11-20T11:44:46;1.48;;;0.90;;
1567;SDS011;777;47.156;8.326;2022-11-20T11:47:50;1.67;;;0.90;;
1567;SDS011;777;47.156;8.326;2022-11-20T11:50:20;0.90;;;0.80;;
1567;SDS011;777;47.156;8.326;2022-11-20T11:52:51;1.70;;;0.82;;
1567;SDS011;777;47.156;8.326;2022-11-20T11:55:28;1.05;;;0.63;;
1567;SDS011;777;47.156;8.326;2022-11-20T11:58:02;1.45;;;0.57;;
1567;SDS011;777;47.156;8.326;2022-11-20T12:00:39;1.25;;;0.57;;
1567;SDS011;777;47.156;8.326;2022-11-20T12:03:12;1.33;;;0.50;;
1567;SDS011;777;47.156;8.326;2022-11-20T12:05:44;2.20;;;0.70;;
1567;SDS011;777;47.156;8.326;2022-11-20T12:08:17;1.63;;;0.70;;
1567;SDS011;777;47.156;8.326;2022-11-20T12:10:52;1.58;;;0.68;;
1567;SDS011;777;47.156;8.326;2022-11-20T12:13:36;0.77;;;0.50;;
1567;SDS011;777;47.156;8.326;2022-11-20T12:16:11;2.45;;;0.60;;
1567;SDS011;777;47.156;8.326;2022-11-20T12:18:39;0.80;;;0.50;;
1567;SDS011;777;47.156;8.326;2022-11-20T12:21:11;0.52;;;0.40;;
1567;SDS011;777;47.156;8.326;2022-11-20T12:23:53;1.25;;;0.60;;
1567;SDS011;777;47.156;8.326;2022-11-20T12:26:37;2.17;;;1.00;;
1567;SDS011;777;47.156;8.326;2022-11-20T12:29:16;2.45;;;1.17;;
1567;SDS011;777;47.156;8.326;2022-11-20T12:31:56;1.67;;;1.02;;
1567;SDS011;777;47.156;8.326;2022-11-20T12:34:44;1.80;;;0.88;;
1567;SDS011;777;47.156;8.326;2022-11-20T12:37:26;1.85;;;0.50;;
1567;SDS011;777;47.156;8.326;2022-11-20T12:40:02;1.23;;;0.60;;
1567;SDS011;777;47.156;8.326;2022-11-20T12:42:52;0.90;;;0.50;;
1567;SDS011;777;47.156;8.326;2022-11-20T12:48:39;0.63;;;0.40;;
1567;SDS011;777;47.156;8.326;2022-11-20T12:51:26;1.02;;;0.50;;
1567;SDS011;777;47.156;8.326;2022-11-20T12:54:25;0.88;;;0.43;;
1567;SDS011;777;47.156;8.326;2022-11-20T12:57:28;1.00;;;0.40;;
1567;SDS011;777;47.156;8.326;2022-11-20T13:00:09;0.88;;;0.43;;
1567;SDS011;777;47.156;8.326;2022-11-20T13:02:55;0.40;;;0.40;;
1567;SDS011;777;47.156;8.326;2022-11-20T13:05:35;2.53;;;0.40;;
1567;SDS011;777;47.156;8.326;2022-11-20T13:08:28;0.63;;;0.30;;
1567;SDS011;777;47.156;8.326;2022-11-20T13:11:00;0.90;;;0.40;;
1567;SDS011;777;47.156;8.326;2022-11-20T13:13:42;1.20;;;0.50;;
1567;SDS011;777;47.156;8.326;2022-11-20T13:16:19;1.08;;;0.50;;
1567;SDS011;777;47.156;8.326;2022-11-20T13:18:54;0.55;;;0.30;;
1567;SDS011;777;47.156;8.326;2022-11-20T13:21:22;1.25;;;0.40;;
1567;SDS011;777;47.156;8.326;2022-11-20T13:24:04;0.60;;;0.30;;
1567;SDS011;777;47.156;8.326;2022-11-20T13:26:31;1.20;;;0.50;;
1567;SDS011;777;47.156;8.326;2022-11-20T13:29:02;2.03;;;0.40;;
1567;SDS011;777;47.156;8.326;2022-11-20T13:31:38;0.63;;;0.40;;
1567;SDS011;777;47.156;8.326;2022-11-20T13:34:09;1.27;;;0.40;;
1567;SDS011;777;47.156;8.326;2022-11-20T13:36:48;1.20;;;0.40;;
1567;SDS011;777;47.156;8.326;2022-11-20T13:39:23;0.52;;;0.35;;
1567;SDS011;777;47.156;8.326;2022-11-20T13:41:53;0.98;;;0.40;;
1567;SDS011;777;47.156;8.326;2022-11-20T13:44:23;1.00;;;0.52;;
1567;SDS011;777;47.156;8.326;2022-11-20T13:46:56;0.80;;;0.30;;
1567;SDS011;777;47.156;8.326;2022-11-20T13:49:25;0.80;;;0.35;;
1567;SDS011;777;47.156;8.326;2022-11-20T13:52:28;0.63;;;0.28;;
1567;SDS011;777;47.156;8.326;2022-11-20T13:55:10;0.40;;;0.20;;
1567;SDS011;777;47.156;8.326;2022-11-20T13:57:47;0.60;;;0.20;;
1567;SDS011;777;47.156;8.326;2022-11-20T14:00:25;0.75;;;0.38;;
1567;SDS011;777;47.156;8.326;2022-11-20T14:03:01;1.55;;;0.28;;
1567;SDS011;777;47.156;8.326;2022-11-20T14:05:38;1.30;;;0.38;;
1567;SDS011;777;47.156;8.326;2022-11-20T14:08:14;0.70;;;0.40;;
1567;SDS011;777;47.156;8.326;2022-11-20T14:10:50;0.60;;;0.30;;
1567;SDS011;777;47.156;8.326;2022-11-20T14:13:17;0.80;;;0.38;;
1567;SDS011;777;47.156;8.326;2022-11-20T14:15:45;1.40;;;0.40;;
1567;SDS011;777;47.156;8.326;2022-11-20T14:18:18;1.13;;;0.40;;
1567;SDS011;777;47.156;8.326;2022-11-20T14:20:47;2.25;;;0.40;;
1567;SDS011;777;47.156;8.326;2022-11-20T14:23:22;0.68;;;0.30;;
1567;SDS011;777;47.156;8.326;2022-11-20T14:26:11;1.23;;;0.38;;
1567;SDS011;777;47.156;8.326;2022-11-20T14:28:40;0.77;;;0.40;;
1567;SDS011;777;47.156;8.326;2022-11-20T14:31:08;1.15;;;0.40;;
1567;SDS011;777;47.156;8.326;2022-11-20T14:33:48;0.98;;;0.30;;
1567;SDS011;777;47.156;8.326;2022-11-20T14:36:16;0.70;;;0.40;;
1567;SDS011;777;47.156;8.326;2022-11-20T14:38:46;0.70;;;0.50;;
1567;SDS011;777;47.156;8.326;2022-11-20T14:41:16;0.57;;;0.30;;
1567;SDS011;777;47.156;8.326;2022-11-20T14:43:45;1.80;;;0.47;;
1567;SDS011;777;47.156;8.326;2022-11-20T14:46:13;2.33;;;0.50;;
1567;SDS011;777;47.156;8.326;2022-11-20T14:48:42;1.15;;;0.60;;
1567;SDS011;777;47.156;8.326;2022-11-20T14:51:24;1.02;;;0.30;;
1567;SDS011;777;47.156;8.326;2022-11-20T14:53:54;0.68;;;0.40;;
1567;SDS011;777;47.156;8.326;2022-11-20T14:56:22;1.45;;;0.60;;
1567;SDS011;777;47.156;8.326;2022-11-20T14:58:56;1.30;;;0.57;;
1567;SDS011;777;47.156;8.326;2022-11-20T15:01:27;1.58;;;0.68;;
1567;SDS011;777;47.156;8.326;2022-11-20T15:04:14;0.90;;;0.50;;
1567;SDS011;777;47.156;8.326;2022-11-20T15:06:50;1.60;;;0.60;;
1567;SDS011;777;47.156;8.326;2022-11-20T15:09:18;2.22;;;0.60;;
1567;SDS011;777;47.156;8.326;2022-11-20T15:11:52;0.80;;;0.70;;
1567;SDS011;777;47.156;8.326;2022-11-20T15:14:21;1.13;;;0.70;;
1567;SDS011;777;47.156;8.326;2022-11-20T15:16:49;1.63;;;0.70;;
1567;SDS011;777;47.156;8.326;2022-11-20T15:19:17;1.08;;;0.55;;
1567;SDS011;777;47.156;8.326;2022-11-20T15:22:08;1.20;;;0.80;;
1567;SDS011;777;47.156;8.326;2022-11-20T15:24:38;1.02;;;0.52;;
1567;SDS011;777;47.156;8.326;2022-11-20T15:27:04;1.80;;;0.80;;
1567;SDS011;777;47.156;8.326;2022-11-20T15:29:35;2.45;;;0.70;;
1567;SDS011;777;47.156;8.326;2022-11-20T15:32:03;0.98;;;0.70;;
1567;SDS011;777;47.156;8.326;2022-11-20T15:34:30;1.17;;;0.70;;
1567;SDS011;777;47.156;8.326;2022-11-20T15:36:57;1.00;;;0.60;;
1567;SDS011;777;47.156;8.326;2022-11-20T15:39:25;1.65;;;0.65;;
1567;SDS011;777;47.156;8.326;2022-11-20T15:41:52;3.20;;;0.70;;
1567;SDS011;777;47.156;8.326;2022-11-20T15:44:19;1.88;;;0.80;;
1567;SDS011;777;47.156;8.326;2022-11-20T15:46:49;1.63;;;1.20;;
1567;SDS011;777;47.156;8.326;2022-11-20T15:49:36;3.45;;;1.25;;
1567;SDS011;777;47.156;8.326;2022-11-20T15:52:03;3.92;;;1.60;;
1567;SDS011;777;47.156;8.326;2022-11-20T15:54:39;1.23;;;0.90;;
1567;SDS011;777;47.156;8.326;2022-11-20T15:57:06;1.83;;;1.20;;
1567;SDS011;777;47.156;8.326;2022-11-20T15:59:33;2.85;;;1.10;;
1567;SDS011;777;47.156;8.326;2022-11-20T16:02:20;2.10;;;1.30;;
1567;SDS011;777;47.156;8.326;2022-11-20T16:04:47;9.13;;;3.85;;
1567;SDS011;777;47.156;8.326;2022-11-20T16:07:14;130.00;;;85.68;;